West Monroe, Louisiana
Current Conditions -  °F | °C
As of 12:53 PM on Thursday 30 Oct 2014 (Local Time) from KMLU Reporting Station
Clear Clear  
Wind Chill: 71°   Ceiling: Unl
Heat Index: 71°   Visibility: 10mi
Dew Point: 44°   Wind: 3mph
Humidity: 38%   Direction: 20°NNE
Pressure: 30.15"   Gusts: NA
Location:  32.5°N, 92.13°W
Report Text: KMLU 301753Z 02003KT 10SM CLR 22/07 A3015 RMK AO2 SLP208 T02170067 10217 20067 58018
Loading
Personal Weather Stations






























Interactive Weather Map
Tropical Storm Tracking
New forecast layout! Learn more

10-Day Weather Forecast

Advertisements
Track Severe Weather on mobile